Time;durP1;ratioP1;P1;durP2;ratioP2;P2;SDS_P1;SDS_P2;PMS_P1;PMS_P2;Temp;Humidity;BMP_temperature;BMP_pressure;BME280_temperature;BME280_humidity;BME280_pressure;Samples;Min_cycle;Max_cycle;Signal;HPM_P1;HPM_P2
2022/10/26 00:01:01;;;;;;;12.13;6.55;;;13.40;99.90;;;;;;5056966;28;20107;-86
2022/10/26 00:03:27;;;;;;;10.40;6.38;;;13.40;99.90;;;;;;5056769;28;20110;-86
2022/10/26 00:05:53;;;;;;;10.45;6.53;;;13.40;99.90;;;;;;5040104;28;20028;-86
2022/10/26 00:08:19;;;;;;;10.75;6.70;;;13.40;99.90;;;;;;5023789;28;20036;-86
2022/10/26 00:10:44;;;;;;;9.48;6.18;;;13.40;99.90;;;;;;5020471;28;20155;-86
2022/10/26 00:13:11;;;;;;;10.50;6.90;;;13.40;99.90;;;;;;5027910;28;20045;-86
2022/10/26 00:15:41;;;;;;;12.32;6.68;;;13.40;99.90;;;;;;5051953;28;20115;-88
2022/10/26 00:18:09;;;;;;;8.88;6.95;;;13.40;99.90;;;;;;5050748;28;20025;-88
2022/10/26 00:20:35;;;;;;;12.18;6.90;;;13.30;99.90;;;;;;5040878;28;20531;-88
2022/10/26 00:23:01;;;;;;;9.60;6.50;;;13.30;99.90;;;;;;5025086;28;20033;-88
2022/10/26 00:25:27;;;;;;;12.75;7.25;;;13.30;99.90;;;;;;5026480;28;20033;-89
2022/10/26 00:27:52;;;;;;;10.98;7.25;;;13.30;99.90;;;;;;5057107;28;20031;-87
2022/10/26 00:30:18;;;;;;;10.27;7.00;;;13.30;99.90;;;;;;5054972;28;20411;-88
2022/10/26 00:32:44;;;;;;;9.77;6.68;;;13.30;99.90;;;;;;5029826;28;20028;-87
2022/10/26 00:35:50;;;;;;;10.60;6.32;;;13.30;99.90;;;;;;5024081;28;20043;-88
2022/10/26 00:38:16;;;;;;;9.27;6.03;;;13.30;99.90;;;;;;5053433;28;20096;-88
2022/10/26 00:40:43;;;;;;;9.75;6.63;;;13.30;99.90;;;;;;5042366;28;20055;-88
2022/10/26 00:43:15;;;;;;;10.05;6.40;;;13.30;99.90;;;;;;5078374;28;20100;-88
2022/10/26 00:45:43;;;;;;;11.20;6.03;;;13.30;99.90;;;;;;5068679;28;20056;-88
2022/10/26 00:48:19;;;;;;;14.98;6.50;;;13.30;99.90;;;;;;5047460;28;20045;-88
2022/10/26 00:50:47;;;;;;;11.30;6.63;;;13.30;99.90;;;;;;5061814;28;20032;-88
2022/10/26 00:53:13;;;;;;;11.00;6.97;;;13.20;99.90;;;;;;5044787;28;20032;-88
2022/10/26 00:55:44;;;;;;;12.23;7.10;;;13.20;99.90;;;;;;5044734;28;20036;-88
2022/10/26 00:58:11;;;;;;;12.05;8.13;;;13.30;99.90;;;;;;5061218;28;20027;-89
2022/10/26 01:00:38;;;;;;;10.73;6.68;;;13.20;99.90;;;;;;5037465;28;20168;-88
2022/10/26 01:03:06;;;;;;;10.50;6.47;;;13.20;99.90;;;;;;5038464;28;20028;-89
2022/10/26 01:05:35;;;;;;;12.35;6.53;;;13.20;99.90;;;;;;5038238;28;20029;-88
2022/10/26 01:08:01;;;;;;;9.80;6.45;;;13.20;99.90;;;;;;5036931;28;20110;-88
2022/10/26 01:10:28;;;;;;;16.38;7.22;;;13.20;99.90;;;;;;5056945;28;20017;-88
2022/10/26 01:12:56;;;;;;;10.45;6.43;;;13.20;99.90;;;;;;5041043;28;20047;-89
2022/10/26 01:15:27;;;;;;;9.80;6.43;;;13.20;99.90;;;;;;5057858;28;20024;-89
2022/10/26 01:18:36;;;;;;;10.18;6.57;;;13.20;99.90;;;;;;5061100;28;20076;-89
2022/10/26 01:21:54;;;;;;;11.75;6.97;;;13.20;99.90;;;;;;4968696;28;20022;-89
2022/10/26 01:24:39;;;;;;;9.57;6.28;;;13.20;99.90;;;;;;4986428;28;20061;-89
2022/10/26 01:27:40;;;;;;;11.43;6.93;;;13.20;99.90;;;;;;4997126;28;20050;-88
2022/10/26 01:30:11;;;;;;;9.77;6.63;;;13.20;99.90;;;;;;5050438;28;20029;-89
2022/10/26 01:33:01;;;;;;;10.88;6.43;;;13.20;99.90;;;;;;5060867;28;20062;-88
2022/10/26 01:35:54;;;;;;;15.00;6.32;;;13.20;99.90;;;;;;5061395;28;20025;-89
2022/10/26 01:38:46;;;;;;;14.50;6.45;;;13.20;99.90;;;;;;5041050;28;20028;-89
2022/10/26 01:41:24;;;;;;;13.38;6.53;;;13.20;99.90;;;;;;5059423;28;20052;-88
2022/10/26 01:44:02;;;;;;;10.77;6.82;;;13.20;99.90;;;;;;5058103;28;20029;-88
2022/10/26 01:46:30;;;;;;;11.18;7.00;;;13.20;99.90;;;;;;5044554;28;20379;-89
2022/10/26 01:49:02;;;;;;;11.18;6.07;;;13.20;99.90;;;;;;5058672;28;20124;-89
2022/10/26 01:51:30;;;;;;;11.82;6.63;;;13.20;99.90;;;;;;5059999;28;20017;-89
2022/10/26 01:53:57;;;;;;;10.18;6.07;;;13.20;99.90;;;;;;5060835;28;20040;-89
2022/10/26 01:56:29;;;;;;;10.30;5.97;;;13.20;99.90;;;;;;5044260;28;21407;-89
2022/10/26 01:59:36;;;;;;;9.45;5.97;;;13.20;99.90;;;;;;5058427;28;20025;-87
2022/10/26 02:02:13;;;;;;;11.85;6.82;;;13.20;99.90;;;;;;4977220;28;20022;-86
2022/10/26 02:05:00;;;;;;;14.25;6.68;;;13.10;99.90;;;;;;4963928;28;20031;-85
2022/10/26 02:07:56;;;;;;;15.85;7.15;;;13.10;99.90;;;;;;5018176;28;20478;-87
2022/10/26 02:11:00;;;;;;;11.68;7.15;;;13.10;99.90;;;;;;5041403;28;20442;-87
2022/10/26 02:13:37;;;;;;;11.75;6.90;;;13.10;99.90;;;;;;5040973;28;20028;-87
2022/10/26 02:16:11;;;;;;;13.52;7.28;;;13.10;99.90;;;;;;5057466;28;20078;-88
2022/10/26 02:18:50;;;;;;;14.75;7.70;;;13.10;99.90;;;;;;5060325;28;20462;-88
2022/10/26 02:21:24;;;;;;;15.48;7.93;;;13.10;99.90;;;;;;5048769;28;20163;-89
2022/10/26 02:23:51;;;;;;;10.65;7.65;;;13.10;99.90;;;;;;5059404;28;20021;-87
2022/10/26 02:26:21;;;;;;;11.90;7.72;;;13.10;99.90;;;;;;5044513;28;20025;-88
2022/10/26 02:28:50;;;;;;;13.65;7.65;;;13.10;99.90;;;;;;5059519;28;20017;-87
2022/10/26 02:31:18;;;;;;;12.18;7.32;;;13.10;99.90;;;;;;5059315;28;20028;-88
2022/10/26 02:33:48;;;;;;;16.35;7.63;;;13.10;99.90;;;;;;5042584;28;20029;-86
2022/10/26 02:36:20;;;;;;;11.43;7.03;;;13.10;99.90;;;;;;5058898;28;20016;-86
2022/10/26 02:38:47;;;;;;;14.52;7.00;;;13.10;99.90;;;;;;5058315;28;20028;-87
2022/10/26 02:41:17;;;;;;;13.90;7.68;;;13.10;99.90;;;;;;5018498;28;20108;-86
2022/10/26 02:43:51;;;;;;;9.50;6.30;;;13.10;99.90;;;;;;5061317;28;20055;-87
2022/10/26 02:46:20;;;;;;;14.05;7.07;;;13.10;99.90;;;;;;5051281;28;20029;-87
2022/10/26 02:48:46;;;;;;;15.23;6.82;;;13.10;99.90;;;;;;5061574;28;20032;-87
2022/10/26 02:51:24;;;;;;;12.30;6.50;;;13.10;99.90;;;;;;5027258;28;20040;-88
2022/10/26 02:54:00;;;;;;;11.40;6.70;;;13.10;99.90;;;;;;5058040;28;20032;-88
2022/10/26 02:56:51;;;;;;;9.98;5.95;;;13.20;99.90;;;;;;5067170;28;20357;-86
2022/10/26 02:59:21;;;;;;;15.23;6.93;;;13.20;99.90;;;;;;5048032;28;20083;-87
2022/10/26 03:01:47;;;;;;;12.23;6.68;;;13.10;99.90;;;;;;5057504;28;20021;-86
2022/10/26 03:04:13;;;;;;;11.30;6.63;;;13.10;99.90;;;;;;5060613;28;20025;-88
2022/10/26 03:06:39;;;;;;;13.07;6.45;;;13.20;99.90;;;;;;5053537;28;20020;-86
2022/10/26 03:09:07;;;;;;;11.13;7.10;;;13.10;99.90;;;;;;5033579;28;20039;-86
2022/10/26 03:11:32;;;;;;;12.05;6.28;;;13.20;99.90;;;;;;5041424;28;20124;-84
2022/10/26 03:14:00;;;;;;;12.35;6.53;;;13.10;99.90;;;;;;5039265;28;20056;-84
2022/10/26 03:16:26;;;;;;;13.73;6.20;;;13.20;99.90;;;;;;5010788;28;20067;-84
2022/10/26 03:18:52;;;;;;;13.95;6.32;;;13.10;99.90;;;;;;5024908;28;20020;-84
2022/10/26 03:21:18;;;;;;;11.30;6.53;;;13.10;99.90;;;;;;5051469;28;20029;-84
2022/10/26 03:23:46;;;;;;;10.10;6.72;;;13.10;99.90;;;;;;5014823;28;20466;-87
2022/10/26 03:26:12;;;;;;;13.18;7.03;;;13.20;99.90;;;;;;5031357;28;20389;-87
2022/10/26 03:28:38;;;;;;;13.45;6.60;;;13.10;99.90;;;;;;5044252;28;20024;-87
2022/10/26 03:31:04;;;;;;;13.10;7.78;;;13.20;99.90;;;;;;5038352;28;20025;-88
2022/10/26 03:33:32;;;;;;;13.90;7.85;;;13.10;99.90;;;;;;5038102;28;20036;-87
2022/10/26 03:36:00;;;;;;;15.38;7.10;;;13.20;99.90;;;;;;5057450;28;20021;-86
2022/10/26 03:38:27;;;;;;;12.27;7.00;;;13.10;99.90;;;;;;5026468;28;20029;-87
2022/10/26 03:40:54;;;;;;;12.98;7.68;;;13.20;99.90;;;;;;5042081;28;20016;-87
2022/10/26 03:43:20;;;;;;;13.43;7.10;;;13.20;99.90;;;;;;5041717;28;20511;-86
2022/10/26 03:45:46;;;;;;;11.52;6.20;;;13.20;99.90;;;;;;5041148;28;20025;-88
2022/10/26 03:48:13;;;;;;;13.85;6.22;;;13.10;99.90;;;;;;5037826;28;20049;-88
2022/10/26 03:50:39;;;;;;;11.48;6.40;;;13.10;99.90;;;;;;5054476;28;20021;-88
2022/10/26 03:53:05;;;;;;;9.15;6.07;;;13.10;99.90;;;;;;5038702;28;20099;-89
2022/10/26 03:56:27;;;;;;;10.50;6.18;;;13.20;99.90;;;;;;5025253;28;20474;-88
2022/10/26 03:58:52;;;;;;;13.25;6.47;;;13.20;99.90;;;;;;5034537;28;20092;-88
2022/10/26 04:01:18;;;;;;;11.23;5.95;;;13.10;99.90;;;;;;5016757;28;20037;-89
2022/10/26 04:03:44;;;;;;;11.10;6.53;;;13.10;99.90;;;;;;5005340;28;20029;-88
2022/10/26 04:06:10;;;;;;;14.00;6.32;;;13.10;99.90;;;;;;5005282;28;20025;-88
2022/10/26 04:08:37;;;;;;;12.68;6.50;;;13.10;99.90;;;;;;5027993;28;20029;-88
2022/10/26 04:11:03;;;;;;;10.30;5.95;;;13.10;99.90;;;;;;5001083;28;20033;-88
2022/10/26 04:13:28;;;;;;;12.98;6.28;;;13.10;99.90;;;;;;5033419;28;20117;-89
2022/10/26 04:15:54;;;;;;;14.85;6.75;;;13.10;99.90;;;;;;5022914;28;20140;-89
2022/10/26 04:18:20;;;;;;;15.05;6.70;;;13.10;99.90;;;;;;5004437;28;20603;-85
2022/10/26 04:20:46;;;;;;;15.45;6.43;;;13.10;99.90;;;;;;5020469;28;20029;-85
2022/10/26 04:23:14;;;;;;;12.88;6.78;;;13.10;99.90;;;;;;5020023;28;20022;-85
2022/10/26 04:25:41;;;;;;;11.77;6.95;;;13.10;99.90;;;;;;5033136;28;20021;-85
2022/10/26 04:28:08;;;;;;;13.70;6.60;;;13.10;99.90;;;;;;5020442;28;20056;-86
2022/10/26 04:30:35;;;;;;;13.00;7.00;;;13.00;99.90;;;;;;5042497;28;20131;-85
2022/10/26 04:33:03;;;;;;;13.95;7.13;;;13.10;99.90;;;;;;5034596;28;20502;-86
2022/10/26 04:35:29;;;;;;;10.13;6.20;;;13.10;99.90;;;;;;5015920;28;20045;-86
2022/10/26 04:38:09;;;;;;;11.73;6.60;;;13.10;99.90;;;;;;5020215;28;20041;-85
2022/10/26 04:40:35;;;;;;;11.65;7.05;;;13.10;99.90;;;;;;5017291;28;20056;-86
2022/10/26 04:43:01;;;;;;;12.50;7.35;;;13.00;99.90;;;;;;5035274;28;20022;-87
2022/10/26 04:45:29;;;;;;;14.40;7.25;;;13.10;99.90;;;;;;5036170;28;20040;-87
2022/10/26 04:48:00;;;;;;;9.13;6.50;;;13.00;99.90;;;;;;5029195;28;20413;-87
2022/10/26 04:50:26;;;;;;;11.20;6.65;;;13.00;99.90;;;;;;5056231;28;20033;-87
2022/10/26 04:52:52;;;;;;;10.90;6.97;;;13.00;99.90;;;;;;5056180;28;20032;-87
2022/10/26 04:55:18;;;;;;;14.02;6.70;;;13.00;99.90;;;;;;5039413;28;20380;-87
2022/10/26 04:57:44;;;;;;;11.43;6.43;;;13.00;99.90;;;;;;5066661;22;20012;-84
2022/10/26 05:00:11;;;;;;;15.05;6.88;;;13.00;99.90;;;;;;5015591;28;20088;-84
2022/10/26 05:02:36;;;;;;;14.27;6.82;;;13.00;99.90;;;;;;4999230;28;20018;-84
2022/10/26 05:05:02;;;;;;;11.60;6.65;;;13.00;99.90;;;;;;4982990;28;20032;-84
2022/10/26 05:07:28;;;;;;;11.77;6.72;;;13.00;99.90;;;;;;5015532;28;20467;-84
2022/10/26 05:09:53;;;;;;;15.27;6.57;;;13.00;99.90;;;;;;5015246;28;20030;-84
2022/10/26 05:12:19;;;;;;;11.27;6.70;;;13.10;99.90;;;;;;4999122;28;20036;-84
2022/10/26 05:14:45;;;;;;;17.13;6.65;;;13.10;99.90;;;;;;4998980;28;20034;-84
2022/10/26 05:17:11;;;;;;;13.18;6.68;;;13.00;99.90;;;;;;5015212;28;20379;-84
2022/10/26 05:19:36;;;;;;;12.25;6.75;;;13.00;99.90;;;;;;5015394;28;20030;-84
2022/10/26 05:22:02;;;;;;;13.23;6.80;;;13.00;99.90;;;;;;5015467;28;20025;-84
2022/10/26 05:24:29;;;;;;;16.50;7.22;;;13.00;99.90;;;;;;5032905;28;20014;-84
2022/10/26 05:26:54;;;;;;;12.50;6.63;;;13.00;99.90;;;;;;4999613;28;20033;-84
2022/10/26 05:29:20;;;;;;;11.15;6.50;;;13.00;99.90;;;;;;5002750;28;20411;-82
2022/10/26 05:31:46;;;;;;;13.98;7.13;;;13.00;99.90;;;;;;5002451;28;20030;-82
2022/10/26 05:34:11;;;;;;;14.68;7.05;;;13.10;99.90;;;;;;5003351;28;20044;-82
2022/10/26 05:36:37;;;;;;;12.50;6.97;;;13.10;99.90;;;;;;5018643;28;20470;-82
2022/10/26 05:39:03;;;;;;;14.23;7.28;;;13.00;99.90;;;;;;5018566;28;20072;-82
2022/10/26 05:41:28;;;;;;;13.60;7.03;;;13.00;99.90;;;;;;5036471;28;20022;-83
2022/10/26 05:43:54;;;;;;;10.85;6.38;;;13.10;99.90;;;;;;4986200;28;20121;-83
2022/10/26 05:46:20;;;;;;;12.93;7.25;;;13.10;99.90;;;;;;5002504;28;20029;-82
2022/10/26 05:48:45;;;;;;;13.15;6.45;;;13.10;99.90;;;;;;5019371;28;20056;-82
2022/10/26 05:51:11;;;;;;;12.10;6.60;;;13.10;99.90;;;;;;5002417;28;20399;-83
2022/10/26 05:53:40;;;;;;;11.90;6.25;;;13.10;99.90;;;;;;4986828;28;20022;-81
2022/10/26 05:56:20;;;;;;;13.15;6.55;;;13.10;99.90;;;;;;5018599;28;20422;-83
2022/10/26 05:58:47;;;;;;;13.35;6.93;;;13.10;99.90;;;;;;5003770;28;20641;-83
2022/10/26 06:01:42;;;;;;;10.55;6.28;;;13.10;99.90;;;;;;4986955;28;20479;-83
2022/10/26 06:04:13;;;;;;;11.13;6.55;;;13.10;99.90;;;;;;5036884;28;20055;-83
2022/10/26 06:06:43;;;;;;;14.30;6.30;;;13.10;99.90;;;;;;5019381;28;20057;-83
2022/10/26 06:09:10;;;;;;;11.13;6.45;;;13.10;99.90;;;;;;5019902;28;20093;-82
2022/10/26 06:11:37;;;;;;;12.82;7.05;;;13.10;99.90;;;;;;5020219;28;20401;-83
2022/10/26 06:14:03;;;;;;;10.82;6.00;;;13.10;99.90;;;;;;4987862;28;20036;-82
2022/10/26 06:16:47;;;;;;;12.60;6.10;;;13.10;99.90;;;;;;4985727;28;20418;-82
2022/10/26 06:19:25;;;;;;;12.73;5.80;;;13.10;99.90;;;;;;5037488;28;20394;-82
2022/10/26 06:21:59;;;;;;;9.30;5.55;;;13.10;99.90;;;;;;5039194;28;20030;-82
2022/10/26 06:24:37;;;;;;;12.15;6.28;;;13.10;99.90;;;;;;5019370;28;20022;-82
2022/10/26 06:27:30;;;;;;;11.60;5.90;;;13.10;99.90;;;;;;5020651;28;20029;-82
2022/10/26 06:30:02;;;;;;;10.90;6.07;;;13.10;99.90;;;;;;5019029;28;20021;-82
2022/10/26 06:32:46;;;;;;;9.85;6.20;;;13.10;99.90;;;;;;5020652;28;20055;-81
2022/10/26 06:35:30;;;;;;;15.45;6.03;;;13.10;99.90;;;;;;5002316;28;20030;-82
2022/10/26 06:38:01;;;;;;;13.02;6.80;;;13.10;99.90;;;;;;5020573;28;20067;-83
2022/10/26 06:43:49;;;;;;;9.93;6.10;;;13.10;99.90;;;;;;5015929;28;20040;-83
2022/10/26 06:46:25;;;;;;;11.38;5.90;;;13.00;99.90;;;;;;4998176;28;20527;-82
2022/10/26 06:49:08;;;;;;;10.57;5.78;;;13.00;99.90;;;;;;4998194;28;20514;-82
2022/10/26 06:51:54;;;;;;;11.70;6.13;;;13.00;99.90;;;;;;5019782;28;20525;-82
2022/10/26 06:54:38;;;;;;;12.50;5.95;;;13.00;99.90;;;;;;5017234;28;20123;-82
2022/10/26 06:57:06;;;;;;;12.80;6.07;;;13.00;99.90;;;;;;5017345;28;20457;-82
2022/10/26 06:59:43;;;;;;;12.23;6.40;;;13.00;99.90;;;;;;5017709;28;20053;-82
2022/10/26 07:02:11;;;;;;;11.73;5.60;;;13.00;99.90;;;;;;5017445;28;20022;-82
2022/10/26 07:04:36;;;;;;;10.05;6.13;;;13.00;99.90;;;;;;5017567;28;20026;-82
2022/10/26 07:07:02;;;;;;;12.60;6.05;;;13.00;99.90;;;;;;5001234;28;20400;-82
2022/10/26 07:09:28;;;;;;;11.38;5.32;;;13.00;99.90;;;;;;5001759;28;20088;-82
2022/10/26 07:11:54;;;;;;;14.02;6.35;;;13.00;99.90;;;;;;5017684;28;20030;-82
2022/10/26 07:14:19;;;;;;;12.75;6.15;;;13.00;99.90;;;;;;5036029;28;20041;-82
2022/10/26 07:16:45;;;;;;;9.10;5.60;;;13.00;99.90;;;;;;5003875;28;20415;-82
2022/10/26 07:25:43;;;;;;;9.10;5.70;;;13.00;99.90;;;;;;4948158;28;20562;-82
2022/10/26 07:28:09;;;;;;;11.50;5.47;;;13.10;99.90;;;;;;4964142;28;20054;-82
2022/10/26 07:30:36;;;;;;;11.60;6.10;;;13.10;99.90;;;;;;4981140;28;20423;-82
2022/10/26 07:33:13;;;;;;;9.23;5.78;;;13.10;99.90;;;;;;4964949;28;20440;-82
2022/10/26 07:35:39;;;;;;;11.48;5.63;;;13.20;99.90;;;;;;4964883;28;20038;-82
2022/10/26 07:38:05;;;;;;;9.45;5.93;;;13.20;99.90;;;;;;4961703;28;20031;-82
2022/10/26 07:40:31;;;;;;;9.82;5.30;;;13.20;99.90;;;;;;4975375;28;20366;-83
2022/10/26 07:42:59;;;;;;;9.93;5.53;;;13.20;99.90;;;;;;4958139;28;20138;-82
2022/10/26 07:45:26;;;;;;;13.38;5.60;;;13.20;99.90;;;;;;4961194;28;20555;-82
2022/10/26 07:47:51;;;;;;;8.55;5.05;;;13.30;99.90;;;;;;4963270;28;20034;-83
2022/10/26 07:50:17;;;;;;;10.18;5.18;;;13.30;99.90;;;;;;4966296;28;20158;-82
2022/10/26 07:52:42;;;;;;;8.95;4.90;;;13.30;99.90;;;;;;4992258;28;20198;-83
2022/10/26 07:55:10;;;;;;;10.55;5.75;;;13.40;99.90;;;;;;5001412;28;20107;-83
2022/10/26 07:58:13;;;;;;;9.45;4.80;;;13.40;99.90;;;;;;4998132;28;20471;-83
2022/10/26 08:00:38;;;;;;;10.70;5.15;;;13.40;99.90;;;;;;5015895;28;20057;-83
2022/10/26 08:03:04;;;;;;;13.00;5.45;;;13.40;99.90;;;;;;4974055;28;20031;-82
2022/10/26 08:05:30;;;;;;;9.68;4.97;;;13.50;99.90;;;;;;4988871;28;20041;-83
2022/10/26 08:07:58;;;;;;;7.18;4.13;;;13.50;99.90;;;;;;4969923;28;20027;-84
2022/10/26 08:10:24;;;;;;;12.77;4.22;;;13.60;99.90;;;;;;4967634;28;20448;-84
2022/10/26 08:12:52;;;;;;;8.75;4.03;;;13.60;99.90;;;;;;4982961;28;20033;-83
2022/10/26 08:15:18;;;;;;;6.75;3.90;;;13.70;99.90;;;;;;4981600;28;20045;-83
2022/10/26 08:17:43;;;;;;;6.95;3.72;;;13.70;99.90;;;;;;4979084;28;20034;-83
2022/10/26 08:20:10;;;;;;;10.50;3.92;;;13.70;99.90;;;;;;4978095;28;20022;-83
2022/10/26 08:22:35;;;;;;;6.85;3.90;;;13.80;99.90;;;;;;4962587;28;20041;-83
2022/10/26 08:25:01;;;;;;;9.50;3.70;;;13.90;99.90;;;;;;4961918;28;20034;-83
2022/10/26 08:27:27;;;;;;;12.85;4.65;;;13.90;99.90;;;;;;4961027;28;20026;-83
2022/10/26 08:29:52;;;;;;;7.20;3.50;;;14.00;99.90;;;;;;4961030;28;20045;-83
2022/10/26 08:32:18;;;;;;;7.55;3.53;;;14.00;99.90;;;;;;4960912;28;20030;-83
2022/10/26 08:34:44;;;;;;;7.68;3.72;;;14.10;99.90;;;;;;4977571;28;20030;-84
2022/10/26 08:37:09;;;;;;;10.18;3.17;;;14.20;99.90;;;;;;4961094;28;20042;-83
2022/10/26 08:39:35;;;;;;;9.27;4.00;;;14.20;99.90;;;;;;4970543;28;20026;-83
2022/10/26 08:42:13;;;;;;;8.82;4.03;;;14.30;99.90;;;;;;4979993;28;20033;-83
2022/10/26 08:44:47;;;;;;;9.27;2.80;;;14.40;99.90;;;;;;5009380;28;20030;-83
2022/10/26 08:47:38;;;;;;;10.07;3.88;;;14.50;99.90;;;;;;4979818;28;20030;-83
2022/10/26 08:50:09;;;;;;;6.00;2.88;;;14.60;99.90;;;;;;4998581;28;20065;-82
2022/10/26 08:52:51;;;;;;;9.07;2.95;;;14.70;99.90;;;;;;4993641;28;20030;-83
2022/10/26 08:55:31;;;;;;;8.38;2.30;;;14.80;99.90;;;;;;5015447;28;20064;-83
2022/10/26 08:58:00;;;;;;;6.28;2.20;;;14.90;99.90;;;;;;5015644;28;20044;-83
2022/10/26 09:00:29;;;;;;;4.90;2.40;;;14.90;99.90;;;;;;5051803;28;20045;-83
2022/10/26 09:02:55;;;;;;;8.65;2.38;;;15.00;99.90;;;;;;5036833;28;20028;-83
2022/10/26 09:05:46;;;;;;;13.65;2.70;;;15.10;99.90;;;;;;5002950;28;20060;-83
2022/10/26 09:08:27;;;;;;;12.13;3.53;;;15.20;99.90;;;;;;5033228;28;20083;-83
2022/10/26 09:11:06;;;;;;;7.05;2.95;;;15.40;99.90;;;;;;5028419;28;20032;-83
2022/10/26 09:13:46;;;;;;;7.57;2.78;;;15.50;99.90;;;;;;5019507;28;20079;-83
2022/10/26 09:16:46;;;;;;;6.57;2.85;;;15.60;99.90;;;;;;5019099;28;20112;-83
2022/10/26 09:19:44;;;;;;;10.70;3.42;;;15.80;99.90;;;;;;5012167;28;20028;-82
2022/10/26 09:23:01;;;;;;;7.32;2.97;;;15.90;99.90;;;;;;5022134;28;20036;-82
2022/10/26 09:25:37;;;;;;;11.02;3.25;;;16.00;99.90;;;;;;5013290;28;20037;-83
2022/10/26 09:28:03;;;;;;;8.02;3.25;;;16.10;99.90;;;;;;5036843;28;20371;-85
2022/10/26 09:30:29;;;;;;;10.15;3.33;;;16.20;99.90;;;;;;5002734;28;20123;-82
2022/10/26 09:32:59;;;;;;;12.27;3.85;;;16.20;99.90;;;;;;5036712;28;20021;-83
2022/10/26 09:35:42;;;;;;;10.80;3.47;;;16.30;99.90;;;;;;5021698;28;20021;-82
2022/10/26 09:38:33;;;;;;;7.07;3.45;;;16.40;99.90;;;;;;5027157;28;20112;-82
2022/10/26 09:41:01;;;;;;;;;;;16.50;99.90;;;;;;5018989;28;20390;-82
2022/10/26 09:43:53;;;;;;;12.88;3.38;;;16.50;99.90;;;;;;5036401;28;20368;-82
2022/10/26 09:49:40;;;;;;;8.38;3.17;;;16.60;99.90;;;;;;5036304;28;20070;-82
2022/10/26 09:52:06;;;;;;;;;;;16.70;99.90;;;;;;5015772;28;20049;-83
2022/10/26 09:54:31;;;;;;;6.65;3.10;;;16.80;99.90;;;;;;5002327;28;20359;-83
2022/10/26 09:57:01;;;;;;;7.75;3.53;;;16.90;99.90;;;;;;4982537;28;20480;-83
2022/10/26 09:59:29;;;;;;;10.95;3.90;;;17.00;99.90;;;;;;4988311;28;20449;-83
2022/10/26 10:01:54;;;;;;;9.65;3.70;;;17.10;99.90;;;;;;5018401;28;20391;-83
2022/10/26 10:04:21;;;;;;;9.20;3.72;;;17.20;99.90;;;;;;5036099;28;20025;-83
2022/10/26 10:07:12;;;;;;;11.07;3.80;;;17.20;99.90;;;;;;5018211;28;20060;-83
2022/10/26 10:09:39;;;;;;;10.60;4.18;;;17.30;99.90;;;;;;5024982;28;20079;-82
2022/10/26 10:12:05;;;;;;;9.27;3.75;;;17.40;99.90;;;;;;5028339;28;20030;-82
2022/10/26 10:14:33;;;;;;;8.77;3.58;;;17.50;99.90;;;;;;5001318;28;20117;-83
2022/10/26 10:17:01;;;;;;;9.73;3.55;;;17.60;99.90;;;;;;5018540;28;20032;-84
2022/10/26 10:19:30;;;;;;;9.27;3.13;;;17.60;99.90;;;;;;5023071;28;20028;-83
2022/10/26 10:21:59;;;;;;;11.23;3.08;;;17.80;99.90;;;;;;5021497;28;20014;-84
2022/10/26 10:24:30;;;;;;;8.80;2.88;;;17.80;99.90;;;;;;5036453;28;20100;-84
2022/10/26 10:27:30;;;;;;;;;;;;;;;;;;;;;
2022/10/26 10:30:54;;;;;;;6.47;3.05;;;18.00;99.90;;;;;;5034255;28;19905;-84
2022/10/26 10:33:20;;;;;;;7.63;3.17;;;18.10;99.90;;;;;;4955827;29;20102;-83
2022/10/26 10:35:57;;;;;;;7.47;3.20;;;18.10;99.90;;;;;;5019198;28;20120;-83
2022/10/26 10:38:22;;;;;;;7.97;2.83;;;18.20;99.90;;;;;;5017622;28;20026;-83
2022/10/26 10:40:57;;;;;;;7.20;2.92;;;18.30;99.90;;;;;;4985209;28;20532;-83
2022/10/26 10:43:23;;;;;;;8.63;3.10;;;18.40;99.90;;;;;;5017988;28;20021;-83
2022/10/26 10:45:52;;;;;;;6.90;3.17;;;18.50;99.90;;;;;;5003779;28;20368;-83
2022/10/26 10:48:21;;;;;;;9.32;2.65;;;18.60;99.90;;;;;;5036014;28;20025;-83
2022/10/26 10:50:51;;;;;;;9.68;3.45;;;18.60;99.90;;;;;;5017507;28;20029;-83
2022/10/26 10:53:35;;;;;;;5.53;2.50;;;18.70;99.90;;;;;;5017153;28;20025;-82
2022/10/26 10:56:16;;;;;;;6.90;2.70;;;18.90;99.90;;;;;;5017284;28;20025;-83
2022/10/26 10:58:46;;;;;;;7.00;2.88;;;18.90;99.90;;;;;;5016978;28;20382;-84
2022/10/26 11:01:16;;;;;;;8.80;2.90;;;19.00;99.90;;;;;;5017380;28;20072;-83
2022/10/26 11:04:11;;;;;;;7.60;2.75;;;19.10;99.90;;;;;;5017045;28;20450;-83
2022/10/26 11:06:39;;;;;;;6.80;2.80;;;19.20;99.90;;;;;;4995889;28;20075;-83
2022/10/26 11:09:12;;;;;;;7.10;2.80;;;19.30;99.90;;;;;;5016879;28;20043;-83
2022/10/26 11:11:49;;;;;;;8.52;2.92;;;19.30;99.90;;;;;;5016745;28;20475;-83
2022/10/26 11:14:24;;;;;;;8.68;2.75;;;19.50;99.90;;;;;;5034834;28;20032;-84
2022/10/26 11:17:10;;;;;;;8.52;3.25;;;19.50;99.90;;;;;;5016877;28;20026;-83
2022/10/26 11:19:54;;;;;;;10.45;3.55;;;19.60;99.90;;;;;;5044563;28;20459;-83
2022/10/26 11:23:14;;;;;;;7.38;2.65;;;19.70;99.90;;;;;;5044481;28;20026;-83
2022/10/26 11:29:31;;;;;;;10.10;3.00;;;19.90;99.90;;;;;;4998724;28;20482;-83
2022/10/26 11:32:07;;;;;;;9.90;2.58;;;20.00;99.90;;;;;;5016812;28;20364;-83
2022/10/26 11:35:00;;;;;;;10.90;2.80;;;20.00;99.90;;;;;;5016878;28;20040;-82
2022/10/26 11:37:36;;;;;;;8.20;2.85;;;20.10;99.90;;;;;;5016298;28;20521;-84
2022/10/26 11:40:23;;;;;;;6.40;2.72;;;20.20;99.90;;;;;;5016448;28;20071;-83
2022/10/26 11:43:18;;;;;;;7.95;2.60;;;20.20;99.90;;;;;;5034430;28;20028;-83
2022/10/26 11:45:45;;;;;;;7.88;2.90;;;20.30;99.90;;;;;;4978410;28;20064;-83
2022/10/26 11:48:34;;;;;;;10.40;2.50;;;20.30;99.90;;;;;;5013105;28;20026;-83
2022/10/26 11:51:01;;;;;;;8.45;2.53;;;20.40;99.90;;;;;;5025777;28;20118;-83
2022/10/26 11:53:36;;;;;;;7.05;2.97;;;20.50;99.90;;;;;;5016211;28;20025;-83
2022/10/26 11:56:03;;;;;;;7.63;2.20;;;20.50;99.90;;;;;;5016161;28;20065;-82
2022/10/26 11:58:31;;;;;;;11.48;2.35;;;20.50;99.90;;;;;;5018844;28;20017;-83
2022/10/26 12:01:08;;;;;;;7.13;2.63;;;20.60;99.90;;;;;;5012729;28;20200;-83
2022/10/26 12:03:42;;;;;;;6.35;2.83;;;20.60;99.90;;;;;;5028413;28;20038;-83
2022/10/26 12:06:08;;;;;;;7.07;2.60;;;20.60;99.90;;;;;;5033917;28;20032;-83
2022/10/26 12:08:46;;;;;;;7.75;2.65;;;20.60;99.90;;;;;;4983747;28;20034;-83
2022/10/26 12:11:34;;;;;;;6.82;2.58;;;20.70;99.90;;;;;;5017153;28;20025;-84
2022/10/26 12:14:22;;;;;;;8.20;2.80;;;20.70;99.90;;;;;;5016125;28;20018;-83
2022/10/26 12:17:05;;;;;;;5.93;2.80;;;20.70;99.90;;;;;;5015796;28;20116;-83
2022/10/26 12:19:41;;;;;;;8.32;2.90;;;20.70;99.90;;;;;;5015926;28;20028;-83
2022/10/26 12:22:12;;;;;;;6.75;2.30;;;20.80;99.90;;;;;;5013459;28;20068;-83
2022/10/26 12:25:02;;;;;;;12.85;2.50;;;20.80;99.90;;;;;;5015921;28;20021;-83
2022/10/26 12:27:39;;;;;;;6.95;2.45;;;20.90;99.90;;;;;;5031905;28;20033;-83
2022/10/26 12:30:10;;;;;;;5.63;2.33;;;21.00;99.90;;;;;;5015725;28;20026;-83
2022/10/26 12:32:36;;;;;;;9.05;3.00;;;21.10;99.90;;;;;;5015805;28;20028;-82
2022/10/26 12:35:29;;;;;;;8.18;2.75;;;21.10;99.90;;;;;;5015726;28;20025;-83
2022/10/26 12:37:55;;;;;;;10.65;3.13;;;21.20;99.90;;;;;;5032589;28;20097;-83
2022/10/26 12:40:31;;;;;;;13.40;3.13;;;21.30;99.90;;;;;;5015723;28;20552;-84
2022/10/26 12:43:12;;;;;;;7.97;2.30;;;21.30;99.90;;;;;;5015705;28;20048;-83
2022/10/26 12:45:38;;;;;;;7.57;2.38;;;21.40;99.90;;;;;;5033314;28;20100;-83
2022/10/26 12:48:19;;;;;;;7.05;2.08;;;21.40;99.90;;;;;;5015666;28;20128;-83
2022/10/26 12:50:45;;;;;;;10.20;2.30;;;21.50;99.90;;;;;;5001525;28;20391;-83
2022/10/26 12:53:14;;;;;;;8.93;2.45;;;21.60;99.90;;;;;;5015527;28;20021;-82
2022/10/26 12:55:49;;;;;;;6.32;2.10;;;21.60;99.90;;;;;;5033084;28;20387;-83
2022/10/26 12:58:20;;;;;;;5.53;2.17;;;21.70;99.90;;;;;;5033448;28;20021;-83
2022/10/26 13:00:58;;;;;;;8.35;2.00;;;21.80;99.90;;;;;;5015239;28;20076;-83
2022/10/26 13:03:42;;;;;;;8.70;2.40;;;21.80;99.90;;;;;;5033288;28;20030;-82
2022/10/26 13:06:23;;;;;;;9.27;2.47;;;21.80;99.90;;;;;;5015623;28;20352;-83
2022/10/26 13:08:54;;;;;;;6.40;2.30;;;21.90;99.90;;;;;;5015465;28;20525;-83
2022/10/26 13:11:37;;;;;;;7.13;2.40;;;21.80;99.90;;;;;;5033251;28;20071;-83
2022/10/26 13:14:06;;;;;;;10.68;2.72;;;21.80;99.90;;;;;;5015479;28;20033;-83
2022/10/26 13:16:31;;;;;;;5.65;2.33;;;21.80;99.90;;;;;;5015584;28;20032;-83
2022/10/26 13:18:59;;;;;;;5.60;2.40;;;21.90;99.90;;;;;;5015295;28;20025;-82
2022/10/26 13:21:26;;;;;;;9.45;3.45;;;21.90;99.90;;;;;;5032923;28;20100;-83
2022/10/26 13:24:00;;;;;;;5.05;2.30;;;21.90;99.90;;;;;;5015533;28;20399;-82
2022/10/26 13:26:28;;;;;;;8.52;2.50;;;22.00;99.90;;;;;;5010963;28;20029;-83
2022/10/26 13:28:59;;;;;;;5.82;2.50;;;22.00;99.90;;;;;;5025428;28;20033;-83